createdAt,value
2017-10-22T00:00:47.006Z,98678.92
2017-10-22T00:03:19.233Z,98678.52
2017-10-22T00:05:50.855Z,98698.19
2017-10-22T00:08:23.243Z,98699.97
2017-10-22T00:10:54.246Z,98692.16
2017-10-22T00:13:25.985Z,98694.27
2017-10-22T00:15:57.704Z,98686.08
2017-10-22T00:18:31.791Z,98684.75
2017-10-22T00:21:03.456Z,98680.74
2017-10-22T00:23:34.501Z,98661.89
2017-10-22T00:26:05.647Z,98659.00
2017-10-22T00:28:39.606Z,98658.31
2017-10-22T00:31:12.310Z,98658.55
2017-10-22T00:33:44.209Z,98666.31
2017-10-22T00:36:18.334Z,98671.19
2017-10-22T00:38:50.806Z,98689.35
2017-10-22T00:41:23.626Z,98706.68
2017-10-22T00:43:59.417Z,98701.01
2017-10-22T00:46:31.389Z,98688.33
2017-10-22T00:49:03.365Z,98687.63
2017-10-22T00:51:34.005Z,98689.31
2017-10-22T00:54:05.039Z,98697.73
2017-10-22T00:56:38.835Z,98686.47
2017-10-22T00:59:10.033Z,98678.97
2017-10-22T01:01:46.798Z,98678.30
2017-10-22T01:04:18.409Z,98681.58
2017-10-22T01:06:49.701Z,98689.77
2017-10-22T01:09:23.324Z,98698.41
2017-10-22T01:11:54.214Z,98704.70
2017-10-22T01:14:26.572Z,98692.29
2017-10-22T01:17:12.971Z,98685.23
2017-10-22T01:19:55.594Z,98684.17
2017-10-22T01:22:33.322Z,98685.16
2017-10-22T01:25:12.040Z,98699.59
2017-10-22T01:27:51.345Z,98714.25
2017-10-22T01:30:37.891Z,98728.37
2017-10-22T01:33:17.487Z,98747.14
2017-10-22T01:35:52.325Z,98732.70
2017-10-22T01:38:30.103Z,98718.20
2017-10-22T01:43:57.236Z,98714.74
2017-10-22T01:46:29.193Z,98709.30
2017-10-22T01:49:01.235Z,98702.75
2017-10-22T01:51:58.073Z,98708.03
2017-10-22T01:54:30.103Z,98711.77
2017-10-22T01:57:04.025Z,98709.63
2017-10-22T01:59:39.749Z,98712.97
2017-10-22T02:02:12.893Z,98715.63
2017-10-22T02:04:43.922Z,98723.33
2017-10-22T02:07:15.365Z,98709.51
2017-10-22T02:09:47.242Z,98688.76
2017-10-22T02:12:19.109Z,98680.99
2017-10-22T02:14:50.381Z,98698.23
2017-10-22T02:17:21.749Z,98696.46
2017-10-22T02:19:53.021Z,98700.33
2017-10-22T02:22:24.390Z,98675.76
2017-10-22T02:24:56.319Z,98684.00
2017-10-22T02:27:28.124Z,98690.44
2017-10-22T02:30:00.345Z,98685.23
2017-10-22T02:32:32.133Z,98677.53
2017-10-22T02:35:03.654Z,98681.90
2017-10-22T02:37:38.782Z,98673.91
2017-10-22T02:40:13.920Z,98670.13
2017-10-22T02:42:45.286Z,98678.69
2017-10-22T02:45:16.648Z,98666.84
2017-10-22T02:47:48.058Z,98673.02
2017-10-22T02:50:20.298Z,98674.97
2017-10-22T02:52:51.938Z,98674.00
2017-10-22T02:55:23.125Z,98680.08
2017-10-22T02:57:54.751Z,98675.89
2017-10-22T03:00:26.841Z,98674.92
2017-10-22T03:02:57.868Z,98669.18
2017-10-22T03:05:32.751Z,98662.56
2017-10-22T03:08:04.897Z,98661.45
2017-10-22T03:10:38.863Z,98669.45
2017-10-22T03:13:19.953Z,98670.77
2017-10-22T03:16:22.365Z,98674.06
2017-10-22T03:19:03.397Z,98667.23
2017-10-22T03:21:45.180Z,98658.93
2017-10-22T03:24:20.827Z,98663.69
2017-10-22T03:26:52.476Z,98666.86
2017-10-22T03:29:24.166Z,98669.48
2017-10-22T03:31:55.244Z,98661.77
2017-10-22T03:34:26.772Z,98664.42
2017-10-22T03:36:59.072Z,98671.14
2017-10-22T03:39:31.361Z,98673.14
2017-10-22T03:42:04.174Z,98667.16
2017-10-22T03:44:41.513Z,98660.11
2017-10-22T03:47:13.270Z,98665.85
2017-10-22T03:49:46.252Z,98666.61
2017-10-22T03:52:17.571Z,98667.30
2017-10-22T03:54:48.916Z,98670.02
2017-10-22T03:57:20.960Z,98667.77
2017-10-22T03:59:52.545Z,98664.64
2017-10-22T04:02:23.993Z,98663.37
2017-10-22T04:04:55.416Z,98666.89
2017-10-22T04:07:26.857Z,98666.09
2017-10-22T04:09:57.939Z,98670.20
2017-10-22T04:12:29.415Z,98670.70
2017-10-22T04:15:01.146Z,98663.11
2017-10-22T04:17:33.282Z,98662.91
2017-10-22T04:20:06.639Z,98653.50
2017-10-22T04:22:40.971Z,98653.45
2017-10-22T04:25:17.085Z,98648.17
2017-10-22T04:27:52.589Z,98648.32
2017-10-22T04:30:24.233Z,98641.02
2017-10-22T04:32:57.987Z,98646.48
2017-10-22T04:35:30.868Z,98648.50
2017-10-22T04:38:20.388Z,98648.04
2017-10-22T04:43:46.513Z,98657.12
2017-10-22T04:46:23.575Z,98648.92
2017-10-22T04:49:01.533Z,98645.56
2017-10-22T04:51:32.737Z,98639.87
2017-10-22T04:54:03.998Z,98639.32
2017-10-22T04:56:38.074Z,98634.98
2017-10-22T04:59:09.518Z,98628.09
2017-10-22T05:01:44.081Z,98626.05
2017-10-22T05:04:15.177Z,98620.27
2017-10-22T05:06:48.661Z,98618.95
2017-10-22T05:09:21.885Z,98619.41
2017-10-22T05:11:55.631Z,98611.84
2017-10-22T05:14:34.186Z,98610.33
2017-10-22T05:17:10.357Z,98606.44
2017-10-22T05:20:01.337Z,98599.42
2017-10-22T05:22:42.764Z,98601.38
2017-10-22T05:25:32.802Z,98605.95
2017-10-22T05:28:14.894Z,98600.92
2017-10-22T05:30:54.649Z,98612.70
2017-10-22T05:33:31.317Z,98613.05
2017-10-22T05:36:09.875Z,98621.76
2017-10-22T05:39:16.297Z,98625.46
2017-10-22T05:44:56.395Z,98623.57
2017-10-22T05:47:46.841Z,98630.27
2017-10-22T05:50:17.601Z,98631.13
2017-10-22T05:52:53.899Z,98622.97
2017-10-22T05:55:24.782Z,98624.47
2017-10-22T05:57:58.826Z,98621.92
2017-10-22T06:00:29.631Z,98622.05
2017-10-22T06:03:05.624Z,98621.06
2017-10-22T06:05:41.576Z,98617.94
2017-10-22T06:08:14.114Z,98625.23
2017-10-22T06:10:45.742Z,98628.25
2017-10-22T06:13:17.461Z,98625.39
2017-10-22T06:15:51.739Z,98620.13
2017-10-22T06:18:24.615Z,98614.16
2017-10-22T06:20:57.109Z,98618.64
2017-10-22T06:23:28.821Z,98607.00
2017-10-22T06:26:00.383Z,98598.16
2017-10-22T06:28:31.925Z,98596.63
2017-10-22T06:31:06.314Z,98609.52
2017-10-22T06:33:40.404Z,98614.87
2017-10-22T06:36:11.778Z,98601.76
2017-10-22T06:38:43.566Z,98601.62
2017-10-22T06:41:14.773Z,98591.26
2017-10-22T06:43:46.753Z,98601.09
2017-10-22T06:46:18.861Z,98592.84
2017-10-22T06:48:50.952Z,98590.25
2017-10-22T06:51:21.891Z,98590.77
2017-10-22T06:53:53.024Z,98593.30
2017-10-22T06:56:28.515Z,98589.39
2017-10-22T06:59:01.360Z,98593.82
2017-10-22T07:01:32.031Z,98597.77
2017-10-22T07:04:03.369Z,98599.86
2017-10-22T07:06:34.572Z,98604.38
2017-10-22T07:09:06.754Z,98613.41
2017-10-22T07:14:48.154Z,98615.52
2017-10-22T07:17:38.346Z,98608.88
2017-10-22T07:20:14.475Z,98618.36
2017-10-22T07:22:47.789Z,98620.31
2017-10-22T07:25:21.811Z,98627.77
2017-10-22T07:27:55.194Z,98633.14
2017-10-22T07:30:28.228Z,98631.17
2017-10-22T07:33:04.692Z,98630.58
2017-10-22T07:35:39.047Z,98631.95
2017-10-22T07:38:11.847Z,98627.83
2017-10-22T07:40:45.561Z,98630.44
2017-10-22T07:43:22.782Z,98626.30
2017-10-22T07:48:46.788Z,98616.39
2017-10-22T07:51:31.100Z,98610.62
2017-10-22T07:54:11.953Z,98608.27
2017-10-22T07:56:59.990Z,98606.70
2017-10-22T07:59:38.992Z,98596.77
2017-10-22T08:02:22.280Z,98604.34
2017-10-22T08:05:09.779Z,98590.94
2017-10-22T08:07:50.667Z,98601.45
2017-10-22T08:10:22.074Z,98592.36
2017-10-22T08:12:58.433Z,98593.77
2017-10-22T08:15:37.111Z,98585.50
2017-10-22T08:18:09.322Z,98589.38
2017-10-22T08:20:43.811Z,98595.61
2017-10-22T08:23:15.930Z,98585.58
2017-10-22T08:25:47.960Z,98589.66
2017-10-22T08:28:20.519Z,98587.41
2017-10-22T08:30:55.234Z,98574.00
2017-10-22T08:33:27.158Z,98571.32
2017-10-22T08:35:59.960Z,98568.44
2017-10-22T08:38:32.325Z,98564.25
2017-10-22T08:41:05.694Z,98562.09
2017-10-22T08:43:38.919Z,98564.45
2017-10-22T08:46:13.307Z,98560.73
2017-10-22T08:48:48.964Z,98564.16
2017-10-22T08:51:22.583Z,98562.00
2017-10-22T08:53:56.041Z,98567.20
2017-10-22T08:56:28.060Z,98568.36
2017-10-22T08:59:05.702Z,98576.41
2017-10-22T09:01:44.977Z,98569.33
2017-10-22T09:04:17.302Z,98576.28
2017-10-22T09:07:00.364Z,98577.67
2017-10-22T09:09:33.514Z,98574.37
2017-10-22T09:12:06.821Z,98587.07
2017-10-22T09:14:40.273Z,98583.09
2017-10-22T09:17:15.939Z,98584.97
2017-10-22T09:19:47.823Z,98582.79
2017-10-22T09:22:19.808Z,98579.38
2017-10-22T09:24:51.422Z,98579.44
2017-10-22T09:27:24.272Z,98584.84
2017-10-22T09:29:55.357Z,98578.91
2017-10-22T09:32:34.709Z,98580.40
2017-10-22T09:35:14.872Z,98587.44
2017-10-22T09:37:48.924Z,98583.95
2017-10-22T09:40:19.864Z,98589.08
2017-10-22T09:42:53.128Z,98588.74
2017-10-22T09:45:24.150Z,98593.90
2017-10-22T09:47:55.724Z,98601.02
2017-10-22T09:50:29.108Z,98590.75
2017-10-22T09:53:00.780Z,98591.33
2017-10-22T09:55:39.411Z,98596.41
2017-10-22T09:58:19.899Z,98585.47
2017-10-22T10:00:54.489Z,98581.65
2017-10-22T10:03:53.220Z,98587.51
2017-10-22T10:09:15.592Z,98587.16
2017-10-22T10:11:55.143Z,98596.41
2017-10-22T10:14:40.393Z,98584.42
2017-10-22T10:17:19.938Z,98579.21
2017-10-22T10:19:55.382Z,98591.43
2017-10-22T10:22:26.534Z,98587.32
2017-10-22T10:25:00.760Z,98589.38
2017-10-22T10:27:34.379Z,98587.83
2017-10-22T10:30:10.402Z,98591.86
2017-10-22T10:36:21.529Z,98588.56
2017-10-22T10:39:00.266Z,98587.53
2017-10-22T10:41:49.922Z,98597.38
2017-10-22T10:44:51.982Z,98591.98
2017-10-22T10:47:49.180Z,98585.10
2017-10-22T10:53:55.486Z,98577.28
2017-10-22T10:56:26.846Z,98584.58
2017-10-22T10:59:04.657Z,98585.70
2017-10-22T11:01:44.324Z,98578.34
2017-10-22T11:04:22.061Z,98578.79
2017-10-22T11:06:57.835Z,98586.50
2017-10-22T11:09:40.568Z,98584.75
2017-10-22T11:21:01.895Z,98559.83
2017-10-22T11:23:41.846Z,98576.95
2017-10-22T11:26:21.794Z,98574.42
2017-10-22T11:28:58.596Z,98577.45
2017-10-22T11:31:40.861Z,98579.17
2017-10-22T11:34:14.632Z,98575.44
2017-10-22T11:36:55.001Z,98578.84
2017-10-22T11:39:32.402Z,98572.78
2017-10-22T11:42:24.625Z,98581.85
2017-10-22T11:44:57.049Z,98588.58
2017-10-22T11:47:32.362Z,98591.41
2017-10-22T11:50:12.942Z,98590.52
2017-10-22T11:52:48.306Z,98581.28
2017-10-22T11:55:21.980Z,98587.15
2017-10-22T11:57:54.122Z,98583.97
2017-10-22T12:00:33.049Z,98579.38
2017-10-22T12:03:05.600Z,98580.36
2017-10-22T12:05:48.920Z,98571.16
2017-10-22T12:08:23.016Z,98578.52
2017-10-22T12:10:58.391Z,98574.80
2017-10-22T12:13:44.966Z,98576.88
2017-10-22T12:16:16.180Z,98581.49
2017-10-22T12:18:52.759Z,98577.78
2017-10-22T12:24:19.609Z,98585.00
2017-10-22T12:26:52.676Z,98583.44
2017-10-22T12:29:24.375Z,98589.73
2017-10-22T12:32:00.860Z,98585.00
2017-10-22T12:34:36.715Z,98582.00
2017-10-22T12:37:14.354Z,98584.89
2017-10-22T12:39:45.389Z,98584.78
2017-10-22T12:42:17.275Z,98576.18
2017-10-22T12:44:57.771Z,98581.44
2017-10-22T12:47:49.338Z,98583.11
2017-10-22T12:53:40.180Z,98579.75
2017-10-22T12:56:34.975Z,98573.25
2017-10-22T12:59:19.549Z,98571.00
2017-10-22T13:01:58.224Z,98574.05
2017-10-22T13:04:29.768Z,98579.53
2017-10-22T13:07:01.831Z,98571.45
2017-10-22T13:09:41.101Z,98572.64
2017-10-22T13:12:14.719Z,98569.17
2017-10-22T13:14:48.748Z,98569.33
2017-10-22T13:17:20.911Z,98563.13
2017-10-22T13:19:52.892Z,98567.42
2017-10-22T13:22:26.815Z,98563.85
2017-10-22T13:25:00.542Z,98564.50
2017-10-22T13:27:33.486Z,98565.07
2017-10-22T13:30:11.961Z,98565.02
2017-10-22T13:32:48.259Z,98563.62
2017-10-22T13:35:19.494Z,98563.70
2017-10-22T13:37:52.585Z,98566.66
2017-10-22T13:40:31.346Z,98564.19
2017-10-22T13:43:13.664Z,98564.73
2017-10-22T13:45:48.294Z,98562.52
2017-10-22T13:48:24.233Z,98558.52
2017-10-22T13:51:00.690Z,98559.70
2017-10-22T13:53:31.750Z,98561.25
2017-10-22T13:56:03.365Z,98562.21
2017-10-22T13:58:39.709Z,98558.81
2017-10-22T14:01:26.244Z,98559.92
2017-10-22T14:04:02.652Z,98560.34
2017-10-22T14:06:43.061Z,98555.36
2017-10-22T14:09:17.409Z,98554.88
2017-10-22T14:11:50.317Z,98558.37
2017-10-22T14:14:24.630Z,98560.91
2017-10-22T14:16:55.981Z,98562.81
2017-10-22T14:19:29.746Z,98562.54
2017-10-22T14:22:03.210Z,98560.30
2017-10-22T14:24:39.442Z,98565.34
2017-10-22T14:27:14.224Z,98565.98
2017-10-22T14:29:46.187Z,98564.51
2017-10-22T14:32:21.564Z,98564.30
2017-10-22T14:34:54.790Z,98563.25
2017-10-22T14:37:30.323Z,98557.23
2017-10-22T14:40:01.657Z,98567.39
2017-10-22T14:42:33.724Z,98563.41
2017-10-22T14:45:17.040Z,98570.63
2017-10-22T14:47:50.344Z,98577.36
2017-10-22T14:50:24.616Z,98577.36
2017-10-22T14:52:57.017Z,98583.73
2017-10-22T14:55:31.797Z,98582.18
2017-10-22T14:58:04.432Z,98588.49
2017-10-22T15:00:38.621Z,98583.38
2017-10-22T15:03:12.361Z,98581.95
2017-10-22T15:05:46.938Z,98585.33
2017-10-22T15:08:18.529Z,98583.80
2017-10-22T15:10:52.823Z,98598.00
2017-10-22T15:13:27.936Z,98592.11
2017-10-22T15:15:59.245Z,98599.37
2017-10-22T15:18:30.524Z,98598.70
2017-10-22T15:21:01.444Z,98599.17
2017-10-22T15:23:34.478Z,98603.45
2017-10-22T15:26:06.475Z,98606.23
2017-10-22T15:28:46.696Z,98601.86
2017-10-22T15:31:25.323Z,98605.45
2017-10-22T15:33:57.852Z,98607.27
2017-10-22T15:36:32.285Z,98608.45
2017-10-22T15:39:04.434Z,98604.78
2017-10-22T15:41:37.753Z,98609.84
2017-10-22T15:44:12.376Z,98611.75
2017-10-22T15:47:02.565Z,98610.66
2017-10-22T15:52:40.509Z,98617.48
2017-10-22T15:55:15.869Z,98625.27
2017-10-22T15:57:50.145Z,98618.28
2017-10-22T16:00:24.032Z,98619.16
2017-10-22T16:03:07.742Z,98624.78
2017-10-22T16:05:43.519Z,98623.03
2017-10-22T16:08:15.635Z,98619.19
2017-10-22T16:10:54.330Z,98624.75
2017-10-22T16:13:31.001Z,98620.07
2017-10-22T16:16:04.409Z,98629.23
2017-10-22T16:18:37.628Z,98632.14
2017-10-22T16:21:10.631Z,98631.09
2017-10-22T16:23:43.153Z,98629.48
2017-10-22T16:26:14.818Z,98632.91
2017-10-22T16:28:45.917Z,98626.58
2017-10-22T16:31:17.586Z,98632.41
2017-10-22T16:33:48.839Z,98631.47
2017-10-22T16:36:25.980Z,98632.55
2017-10-22T16:39:09.693Z,98635.03
2017-10-22T16:44:40.322Z,98635.10
2017-10-22T16:47:13.303Z,98635.41
2017-10-22T16:49:45.230Z,98642.33
2017-10-22T16:52:19.795Z,98649.48
2017-10-22T16:54:52.426Z,98646.80
2017-10-22T16:57:27.469Z,98636.95
2017-10-22T16:59:59.468Z,98644.83
2017-10-22T17:02:30.017Z,98646.25
2017-10-22T17:05:01.667Z,98648.70
2017-10-22T17:07:34.076Z,98641.59
2017-10-22T17:10:08.228Z,98644.91
2017-10-22T17:13:16.905Z,98642.16
2017-10-22T17:15:49.369Z,98647.94
2017-10-22T17:18:22.965Z,98651.59
2017-10-22T17:20:54.380Z,98652.63
2017-10-22T17:23:26.486Z,98652.64
2017-10-22T17:26:10.000Z,98651.63
2017-10-22T17:28:45.520Z,98653.34
2017-10-22T17:31:16.765Z,98650.97
2017-10-22T17:33:48.223Z,98653.98
2017-10-22T17:36:20.084Z,98658.31
2017-10-22T17:38:53.254Z,98660.06
2017-10-22T17:59:24.020Z,98665.71
2017-10-22T18:01:55.171Z,98667.13
2017-10-22T18:04:31.549Z,98670.20
2017-10-22T18:07:03.183Z,98663.42
2017-10-22T18:09:34.375Z,98669.81
2017-10-22T18:12:06.038Z,98670.66
2017-10-22T18:14:41.061Z,98667.16
2017-10-22T18:17:16.416Z,98676.33
2017-10-22T18:20:03.113Z,98672.28
2017-10-22T18:25:19.974Z,98679.06
2017-10-22T18:27:51.288Z,98676.83
2017-10-22T18:30:22.431Z,98684.38
2017-10-22T18:32:54.483Z,98688.54
2017-10-22T18:35:28.589Z,98688.05
2017-10-22T18:38:04.660Z,98691.75
2017-10-22T18:40:43.514Z,98691.89
2017-10-22T18:43:22.114Z,98690.98
2017-10-22T18:46:01.322Z,98689.33
2017-10-22T18:50:23.718Z,98683.87
2017-10-22T18:53:17.418Z,98684.72
2017-10-22T18:55:48.981Z,98684.14
2017-10-22T18:58:20.334Z,98690.44
2017-10-22T19:00:53.525Z,98690.24
2017-10-22T19:03:25.113Z,98695.88
2017-10-22T19:05:56.945Z,98694.75
2017-10-22T19:08:29.402Z,98695.80
2017-10-22T19:11:03.047Z,98694.48
2017-10-22T19:13:42.781Z,98692.05
2017-10-22T19:16:17.609Z,98691.36
2017-10-22T19:18:49.260Z,98696.98
2017-10-22T19:21:24.926Z,98701.41
2017-10-22T19:23:59.130Z,98702.52
2017-10-22T19:29:23.618Z,98709.87
2017-10-22T19:31:57.349Z,98710.12
2017-10-22T19:34:29.100Z,98713.60
2017-10-22T19:37:02.297Z,98710.20
2017-10-22T19:39:39.181Z,98714.39
2017-10-22T19:42:12.024Z,98712.48
2017-10-22T19:44:51.373Z,98714.40
2017-10-22T19:47:24.643Z,98719.63
2017-10-22T19:49:57.438Z,98721.91
2017-10-22T19:52:29.345Z,98719.54
2017-10-22T19:55:06.994Z,98723.96
2017-10-22T19:57:45.509Z,98721.56
2017-10-22T20:00:36.352Z,98729.59
2017-10-22T20:03:14.848Z,98727.73
2017-10-22T20:05:52.082Z,98729.41
2017-10-22T20:08:40.058Z,98734.30
2017-10-22T20:11:22.251Z,98731.34
2017-10-22T20:14:02.933Z,98732.06
2017-10-22T20:16:41.496Z,98733.59
2017-10-22T20:19:24.429Z,98738.14
2017-10-22T20:22:03.595Z,98739.11
2017-10-22T20:24:38.543Z,98735.13
2017-10-22T20:27:10.620Z,98734.52
2017-10-22T20:29:45.903Z,98736.95
2017-10-22T20:35:12.954Z,98744.50
2017-10-22T20:38:02.583Z,98744.86
2017-10-22T20:40:33.656Z,98748.00
2017-10-22T20:43:04.481Z,98750.41
2017-10-22T20:45:39.672Z,98757.55
2017-10-22T20:48:11.574Z,98753.55
2017-10-22T20:50:43.942Z,98754.11
2017-10-22T20:53:16.729Z,98759.35
2017-10-22T20:55:50.112Z,98757.27
2017-10-22T20:58:26.729Z,98757.63
2017-10-22T21:01:01.266Z,98759.77
2017-10-22T21:03:38.994Z,98758.13
2017-10-22T21:06:13.736Z,98757.83
2017-10-22T21:08:50.369Z,98758.74
2017-10-22T21:11:46.704Z,98764.03
2017-10-22T21:14:28.988Z,98764.30
2017-10-22T21:16:59.798Z,98760.48
2017-10-22T21:19:32.371Z,98766.05
2017-10-22T21:22:04.620Z,98766.43
2017-10-22T21:24:37.272Z,98769.56
2017-10-22T21:27:09.971Z,98774.23
2017-10-22T21:29:43.920Z,98775.36
2017-10-22T21:32:15.432Z,98776.56
2017-10-22T21:34:46.196Z,98776.98
2017-10-22T21:37:18.550Z,98773.13
2017-10-22T21:40:06.513Z,98776.20
2017-10-22T21:42:44.232Z,98775.71
2017-10-22T21:45:19.463Z,98773.25
2017-10-22T21:47:54.766Z,98781.22
2017-10-22T21:50:26.466Z,98777.31
2017-10-22T21:52:59.715Z,98779.60
2017-10-22T21:55:37.926Z,98771.88
2017-10-22T21:58:12.486Z,98775.44
2017-10-22T22:00:50.371Z,98780.73
2017-10-22T22:03:48.587Z,98781.84
2017-10-22T22:06:20.952Z,98786.76
2017-10-22T22:08:51.779Z,98784.36
2017-10-22T22:11:22.942Z,98790.22
2017-10-22T22:13:54.460Z,98784.52
2017-10-22T22:16:25.997Z,98788.97
2017-10-22T22:18:58.873Z,98785.69
2017-10-22T22:21:29.817Z,98782.20
2017-10-22T22:24:02.357Z,98777.25
2017-10-22T22:26:33.173Z,98782.13
2017-10-22T22:29:07.799Z,98783.59
2017-10-22T22:31:45.318Z,98779.26
2017-10-22T22:34:17.280Z,98780.81
2017-10-22T22:36:51.456Z,98783.04
2017-10-22T22:39:27.552Z,98782.88
2017-10-22T22:42:04.305Z,98789.87
2017-10-22T22:44:38.643Z,98789.95
2017-10-22T22:47:10.322Z,98792.66
2017-10-22T22:49:43.925Z,98785.84
2017-10-22T22:52:15.885Z,98786.94
2017-10-22T22:54:47.170Z,98787.94
2017-10-22T22:57:19.297Z,98784.94
2017-10-22T22:59:51.900Z,98788.27
2017-10-22T23:02:25.407Z,98781.92
2017-10-22T23:04:57.995Z,98785.32
2017-10-22T23:07:30.806Z,98782.97
2017-10-22T23:10:02.008Z,98784.77
2017-10-22T23:12:33.374Z,98787.85
2017-10-22T23:15:11.876Z,98787.56
2017-10-22T23:17:44.351Z,98788.27
2017-10-22T23:20:15.869Z,98787.78
2017-10-22T23:22:47.308Z,98787.98
2017-10-22T23:25:19.006Z,98788.82
2017-10-22T23:27:51.365Z,98787.14
2017-10-22T23:30:23.359Z,98785.39
2017-10-22T23:32:55.098Z,98786.53
2017-10-22T23:35:29.407Z,98789.73
2017-10-22T23:38:03.109Z,98786.81
2017-10-22T23:40:37.410Z,98782.13
2017-10-22T23:43:09.658Z,98784.65
2017-10-22T23:45:44.029Z,98788.07
2017-10-22T23:48:15.667Z,98783.73
2017-10-22T23:50:46.892Z,98780.11
2017-10-22T23:53:18.450Z,98780.73
2017-10-22T23:55:49.808Z,98777.10
2017-10-22T23:58:21.182Z,98776.88
